Time;durP1;ratioP1;P1;durP2;ratioP2;P2;SDS_P1;SDS_P2;PMS_P1;PMS_P2;Temp;Humidity;BMP_temperature;BMP_pressure;BME280_temperature;BME280_humidity;BME280_pressure;Samples;Min_cycle;Max_cycle;Signal;HPM_P1;HPM_P2
2022/05/26 00:01:00;;;;;;;7.38;3.80;;;;;;;14.56;86.39;101734.00;5107374;28;20327;-35
2022/05/26 00:03:25;;;;;;;4.13;3.28;;;;;;;14.54;86.21;101731.50;5074487;28;20029;-35
2022/05/26 00:05:51;;;;;;;;;;;;;;;14.63;85.24;101738.25;5074742;28;20376;-35
2022/05/26 00:08:17;;;;;;;4.80;3.30;;;;;;;14.59;86.35;101725.34;5073760;28;19966;-35
2022/05/26 00:10:42;;;;;;;3.50;3.20;;;;;;;14.62;86.08;101733.88;5074764;28;20036;-35
2022/05/26 00:13:08;;;;;;;3.57;3.10;;;;;;;14.60;86.14;101730.56;5074157;28;20029;-35
2022/05/26 00:15:33;;;;;;;6.22;3.55;;;;;;;14.58;86.46;101723.69;5074336;28;20338;-35
2022/05/26 00:17:59;;;;;;;5.10;3.17;;;;;;;14.52;86.07;101711.84;5073993;28;20474;-35
2022/05/26 00:20:24;;;;;;;3.93;3.40;;;;;;;14.62;86.38;101731.16;5074347;28;20029;-35
2022/05/26 00:22:49;;;;;;;;;;;;;;;14.68;85.33;101732.91;5074625;28;20033;-35
2022/05/26 00:25:15;;;;;;;3.43;2.70;;;;;;;14.60;86.64;101743.34;5074211;28;19908;-36
2022/05/26 00:27:40;;;;;;;6.03;3.60;;;;;;;14.60;86.50;101736.00;5073733;28;20341;-35
2022/05/26 00:30:06;;;;;;;4.95;3.20;;;;;;;14.59;86.39;101745.25;5073786;28;20174;-35
2022/05/26 00:32:32;;;;;;;;;;;;;;;14.65;85.51;101743.47;5074678;28;20075;-35
2022/05/26 00:34:57;;;;;;;5.60;3.25;;;;;;;14.56;86.90;101742.16;5073772;28;19912;-35
2022/05/26 00:37:22;;;;;;;4.67;3.10;;;;;;;14.52;86.79;101736.34;5073726;28;20036;-35
2022/05/26 00:39:48;;;;;;;4.25;3.22;;;;;;;14.56;86.65;101748.44;5073837;28;20039;-35
2022/05/26 00:42:14;;;;;;;5.60;3.00;;;;;;;14.61;86.41;101742.28;5073677;28;20358;-35
2022/05/26 00:44:39;;;;;;;;;;;;;;;14.67;85.39;101747.59;5073898;28;20024;-35
2022/05/26 00:47:21;;;;;;;5.17;3.13;;;;;;;14.59;86.54;101747.09;5074029;28;19919;-35
2022/05/26 00:49:50;;;;;;;5.72;3.42;;;;;;;14.56;86.75;101753.88;5074031;28;20286;-35
2022/05/26 00:52:20;;;;;;;5.47;3.25;;;;;;;14.47;86.95;101730.75;5073592;28;20101;-35
2022/05/26 00:54:47;;;;;;;5.47;3.28;;;;;;;14.55;86.91;101744.06;5072516;28;20484;-35
2022/05/26 00:57:23;;;;;;;7.00;3.67;;;;;;;14.57;86.71;101741.09;5073491;28;20086;-35
2022/05/26 01:00:00;;;;;;;5.35;3.25;;;;;;;14.54;86.97;101739.69;5073236;28;20050;-35
2022/05/26 01:02:34;;;;;;;7.13;3.45;;;;;;;14.53;87.27;101746.16;5073592;28;20469;-35
2022/05/26 01:05:03;;;;;;;7.22;3.85;;;;;;;14.44;87.49;101723.03;5073471;28;20385;-35
2022/05/26 01:07:36;;;;;;;6.68;3.50;;;;;;;14.57;86.98;101744.63;5073647;28;20111;-35
2022/05/26 01:10:03;;;;;;;6.78;4.22;;;;;;;14.53;87.53;101746.16;5072831;28;20078;-35
2022/05/26 01:12:29;;;;;;;7.70;3.90;;;;;;;14.47;87.61;101730.75;5073123;28;20027;-35
2022/05/26 01:14:58;;;;;;;;;;;;;;;14.61;86.22;101753.16;5073507;28;20028;-35
2022/05/26 01:17:47;;;;;;;6.10;3.72;;;;;;;14.55;87.13;101748.66;5073171;28;19915;-35
2022/05/26 01:20:24;;;;;;;7.90;4.25;;;;;;;14.52;87.93;101744.50;5073272;28;20376;-35
2022/05/26 01:23:29;;;;;;;9.40;4.07;;;;;;;14.57;87.46;101758.25;5073310;28;20052;-35
2022/05/26 01:26:13;;;;;;;7.53;3.90;;;;;;;14.51;87.83;101747.47;5073250;28;20025;-35
2022/05/26 01:29:15;;;;;;;6.30;4.18;;;;;;;14.51;88.09;101761.91;5073332;28;20055;-35
2022/05/26 01:32:11;;;;;;;7.25;3.92;;;;;;;14.51;87.86;101758.38;5072913;28;20096;-35
2022/05/26 01:34:43;;;;;;;9.60;4.50;;;;;;;14.44;87.82;101747.53;5072626;28;20035;-35
2022/05/26 01:37:20;;;;;;;8.23;4.07;;;;;;;14.52;88.18;101760.03;5073299;28;20039;-35
2022/05/26 01:39:51;;;;;;;;;;;;;;;14.56;87.32;101767.47;5073594;28;20032;-35
2022/05/26 01:42:25;;;;;;;9.20;4.00;;;;;;;14.53;88.06;101761.66;5073493;28;19908;-35
2022/05/26 01:44:59;;;;;;;8.07;4.40;;;;;;;14.51;88.07;101763.81;5072473;28;20491;-35
2022/05/26 01:47:55;;;;;;;8.73;3.90;;;;;;;14.48;88.45;101762.38;5072753;28;20120;-35
2022/05/26 01:50:20;;;;;;;11.18;4.65;;;;;;;14.49;88.34;101761.31;5072732;28;20033;-35
2022/05/26 01:53:06;;;;;;;;;;;;;;;14.54;87.76;101764.19;5073457;28;20040;-35
2022/05/26 01:55:58;;;;;;;10.07;4.25;;;;;;;14.49;88.50;101774.91;5073616;28;19920;-36
2022/05/26 01:58:33;;;;;;;9.43;4.97;;;;;;;14.48;88.59;101775.97;5072824;28;20033;-35
2022/05/26 02:01:03;;;;;;;10.73;4.40;;;;;;;14.51;88.62;101780.13;5073092;28;20108;-35
2022/05/26 02:03:32;;;;;;;9.95;4.40;;;;;;;14.49;88.60;101777.63;5072311;28;20035;-35
2022/05/26 02:06:06;;;;;;;11.32;5.00;;;;;;;14.50;88.59;101779.31;5074639;28;20044;-35
2022/05/26 02:08:37;;;;;;;8.63;4.85;;;;;;;14.41;89.06;101769.78;5076975;28;20029;-35
2022/05/26 02:11:18;;;;;;;10.65;4.60;;;;;;;14.50;88.85;101778.50;5075494;28;20185;-35
2022/05/26 02:13:59;;;;;;;13.18;5.47;;;;;;;14.48;88.87;101784.16;5076618;28;20060;-35
2022/05/26 02:16:31;;;;;;;11.32;4.70;;;;;;;14.40;89.29;101788.00;5076671;28;20024;-35
2022/05/26 02:19:07;;;;;;;10.55;4.80;;;;;;;14.36;89.35;101780.56;5076055;28;20477;-35
2022/05/26 02:21:46;;;;;;;9.75;5.25;;;;;;;14.46;89.14;101801.75;5076977;28;20115;-35
2022/05/26 02:24:53;;;;;;;7.85;5.25;;;;;;;14.43;89.38;101797.59;5075950;28;20028;-35
2022/05/26 02:27:18;;;;;;;10.43;5.03;;;;;;;14.33;89.29;101781.84;5074866;28;20085;-35
2022/05/26 02:29:53;;;;;;;;;;;;;;;14.48;88.05;101800.47;5076113;28;20128;-35
2022/05/26 02:32:31;;;;;;;8.40;5.13;;;;;;;14.39;89.10;101799.94;5076037;28;19917;-35
2022/05/26 02:35:00;;;;;;;9.85;5.25;;;;;;;14.35;89.66;101797.94;5076729;28;20481;-35
2022/05/26 02:37:27;;;;;;;10.27;5.40;;;;;;;14.38;89.67;101802.91;5076836;28;20123;-35
2022/05/26 02:39:52;;;;;;;11.85;5.75;;;;;;;14.38;89.87;101805.63;5075882;28;20056;-35
2022/05/26 02:42:19;;;;;;;11.20;5.68;;;;;;;14.38;89.58;101802.91;5076435;28;20032;-35
2022/05/26 02:44:46;;;;;;;10.95;5.90;;;;;;;14.36;90.09;101802.31;5076244;28;20078;-35
2022/05/26 02:47:22;;;;;;;10.30;5.75;;;;;;;14.34;89.85;101799.81;5076056;28;20024;-35
2022/05/26 02:50:03;;;;;;;11.32;6.05;;;;;;;14.21;89.77;101774.72;5076205;28;20025;-35
2022/05/26 02:52:47;;;;;;;11.88;5.72;;;;;;;14.36;89.99;101808.59;5075749;28;20396;-35
2022/05/26 02:55:30;;;;;;;13.95;5.75;;;;;;;14.36;89.81;101815.91;5075533;28;20088;-35
2022/05/26 02:58:01;;;;;;;11.35;6.07;;;;;;;14.33;90.12;101808.22;5075782;28;20024;-35
2022/05/26 03:00:43;;;;;;;12.43;5.57;;;;;;;14.32;90.37;101809.28;5075992;28;20523;-35
2022/05/26 03:03:16;;;;;;;13.02;6.38;;;;;;;14.30;90.08;101808.66;5075785;28;20033;-35
2022/05/26 03:05:53;;;;;;;13.23;5.88;;;;;;;14.34;89.76;101810.69;5076163;28;20024;-35
2022/05/26 03:08:23;;;;;;;13.27;5.93;;;;;;;14.25;90.34;101803.09;5075082;28;20538;-35
2022/05/26 03:10:52;;;;;;;11.57;5.68;;;;;;;14.30;90.01;101809.53;5075958;28;20427;-35
2022/05/26 03:13:18;;;;;;;13.68;6.03;;;;;;;14.30;90.24;101811.38;5075396;28;20044;-35
2022/05/26 03:15:44;;;;;;;;;;;;;;;14.36;89.07;101814.03;5076254;28;20043;-35
2022/05/26 03:18:09;;;;;;;12.50;5.97;;;;;;;14.32;90.03;101810.09;5074565;28;19916;-35
2022/05/26 03:20:36;;;;;;;13.73;6.45;;;;;;;14.29;90.26;101824.16;5075667;28;20112;-35
2022/05/26 03:23:02;;;;;;;12.93;5.90;;;;;;;14.28;90.18;101825.22;5073757;28;20536;-35
2022/05/26 03:25:27;;;;;;;;;;;;;;;14.33;88.98;101832.69;5075646;28;20107;-35
2022/05/26 03:27:53;;;;;;;14.63;6.40;;;;;;;14.26;90.52;101827.38;5074816;28;20006;-35
2022/05/26 03:30:18;;;;;;;14.50;6.13;;;;;;;14.24;90.39;101829.47;5074906;28;20071;-35
2022/05/26 03:32:45;;;;;;;14.65;6.10;;;;;;;14.17;90.59;101818.69;5074864;28;20282;-35
2022/05/26 03:40:55;;;;;;;14.02;7.07;;;;;;;14.21;90.67;101846.28;5075342;28;20048;-35
2022/05/26 03:43:32;;;;;;;15.00;6.70;;;;;;;14.19;90.88;101840.22;5074697;28;20033;-35
2022/05/26 03:45:58;;;;;;;;;;;;;;;14.26;89.66;101840.97;5075649;28;20032;-35
2022/05/26 03:48:24;;;;;;;13.57;5.80;;;;;;;14.23;90.49;101854.19;5074345;28;20007;-35
2022/05/26 03:50:49;;;;;;;13.27;5.90;;;;;;;14.20;90.35;101847.34;5074695;28;20063;-35
2022/05/26 03:53:14;;;;;;;12.40;5.63;;;;;;;14.18;90.48;101855.72;5073690;28;20369;-35
2022/05/26 03:55:40;;;;;;;16.03;6.17;;;;;;;14.17;90.69;101853.22;5074570;28;20255;-35
2022/05/26 03:58:05;;;;;;;16.20;6.03;;;;;;;14.10;90.75;101845.19;5074191;28;20039;-35
2022/05/26 04:00:31;;;;;;;16.95;5.85;;;;;;;14.09;90.95;101853.53;5074159;28;20029;-35
2022/05/26 04:02:57;;;;;;;14.82;5.82;;;;;;;14.03;91.17;101849.84;5075316;28;20361;-35
2022/05/26 04:05:22;;;;;;;15.65;5.53;;;;;;;14.11;90.91;101865.88;5074381;28;20021;-35
2022/05/26 04:07:48;;;;;;;14.48;5.13;;;;;;;14.09;91.23;101865.25;5074599;28;20020;-35
2022/05/26 04:10:14;;;;;;;13.35;5.07;;;;;;;14.05;91.35;101866.75;5074155;28;20028;-35
2022/05/26 04:12:42;;;;;;;;;;;;;;;14.16;90.38;101876.88;5074839;28;20033;-35
2022/05/26 04:15:08;;;;;;;14.80;4.93;;;;;;;14.09;90.86;101869.88;5074002;28;20326;-35
2022/05/26 04:17:35;;;;;;;16.90;5.25;;;;;;;14.06;91.31;101873.06;5074820;28;20118;-35
2022/05/26 04:20:00;;;;;;;12.60;5.03;;;;;;;14.04;91.24;101872.44;5074667;28;20032;-35
2022/05/26 04:22:26;;;;;;;18.20;6.67;;;;;;;14.07;91.35;101872.00;5074340;28;20400;-35
2022/05/26 04:24:55;;;;;;;16.02;5.40;;;;;;;14.07;91.31;101875.53;5073523;28;20127;-35
2022/05/26 04:27:22;;;;;;;14.57;5.10;;;;;;;14.03;91.07;101879.78;5074407;28;20119;-35
2022/05/26 04:29:48;;;;;;;17.67;5.53;;;;;;;14.03;91.34;101877.06;5072479;28;20101;-35
2022/05/26 04:32:13;;;;;;;;;;;;;;;14.13;89.84;101887.38;5074472;28;20028;-35
2022/05/26 04:34:39;;;;;;;14.45;5.00;;;;;;;14.04;91.14;101876.00;5074134;28;19974;-35
2022/05/26 04:37:05;;;;;;;12.68;4.93;;;;;;;13.95;91.45;101871.91;5073768;28;20036;-35
2022/05/26 04:39:31;;;;;;;13.50;5.10;;;;;;;14.05;91.13;101880.34;5073637;28;20063;-35
2022/05/26 04:41:59;;;;;;;14.10;4.45;;;;;;;14.07;91.17;101891.03;5073423;28;20039;-35
2022/05/26 04:44:25;;;;;;;16.88;5.53;;;;;;;14.07;91.50;101891.84;5073490;28;20028;-35
2022/05/26 04:46:50;;;;;;;;;;;;;;;14.19;90.28;101886.47;5073924;28;20036;-36
2022/05/26 04:49:15;;;;;;;14.77;4.17;;;;;;;14.16;91.07;101898.66;5073552;28;19956;-35
2022/05/26 04:51:41;;;;;;;15.02;5.72;;;;;;;14.14;91.11;101899.91;5073437;28;20059;-35
2022/05/26 04:54:07;;;;;;;14.32;5.28;;;;;;;14.19;90.83;101902.78;5074045;28;20039;-35
2022/05/26 04:56:33;;;;;;;17.30;5.65;;;;;;;14.23;90.68;101903.16;5073607;28;20115;-35
2022/05/26 04:58:58;;;;;;;;;;;;;;;14.31;89.74;101905.56;5072369;28;20067;-35
2022/05/26 05:01:24;;;;;;;15.70;5.82;;;;;;;14.29;90.48;101913.13;5072925;28;19912;-35
2022/05/26 05:03:49;;;;;;;13.57;4.18;;;;;;;14.27;90.20;101917.97;5073236;28;20052;-35
2022/05/26 05:06:15;;;;;;;15.38;4.68;;;;;;;14.25;90.89;101918.22;5073473;28;20540;-35
2022/05/26 05:08:41;;;;;;;16.92;4.80;;;;;;;14.15;90.75;101918.75;5073095;28;20119;-35
2022/05/26 05:11:07;;;;;;;;;;;;;;;14.35;89.66;101923.94;5073878;28;20056;-35
2022/05/26 05:13:33;;;;;;;16.45;5.03;;;;;;;14.29;90.58;101934.88;5073581;28;19961;-35
2022/05/26 05:16:27;;;;;;;17.85;5.22;;;;;;;14.32;90.59;101938.00;5072911;28;20037;-35
2022/05/26 05:18:52;;;;;;;21.20;6.15;;;;;;;14.32;90.21;101934.44;5073505;28;20093;-35
2022/05/26 05:21:25;;;;;;;12.98;4.60;;;;;;;14.33;90.48;101949.69;5073102;28;20029;-35
2022/05/26 05:23:57;;;;;;;13.52;4.68;;;;;;;14.31;90.52;101939.06;5073238;28;20020;-35
2022/05/26 05:26:24;;;;;;;16.40;5.32;;;;;;;14.34;90.32;101938.56;5073485;28;20374;-35
2022/05/26 05:29:01;;;;;;;13.80;4.82;;;;;;;14.38;90.54;101933.50;5073000;28;20475;-35
2022/05/26 05:31:33;;;;;;;15.10;4.50;;;;;;;14.41;90.88;101938.50;5072863;28;20461;-35
2022/05/26 05:34:09;;;;;;;13.68;4.70;;;;;;;14.46;90.15;101948.72;5073211;28;20059;-35
2022/05/26 05:36:35;;;;;;;16.27;5.25;;;;;;;14.51;90.17;101955.16;5072924;28;20366;-35
2022/05/26 05:39:03;;;;;;;14.07;4.70;;;;;;;14.49;90.28;101959.16;5072735;28;20062;-35
2022/05/26 05:41:31;;;;;;;14.45;5.72;;;;;;;14.52;90.39;101962.25;5073069;28;20031;-35
2022/05/26 05:43:57;;;;;;;17.95;5.07;;;;;;;14.56;90.08;101958.00;5072915;28;20433;-35
2022/05/26 05:46:22;;;;;;;;;;;;;;;14.66;89.42;101952.00;5073458;28;20063;-35
2022/05/26 05:48:48;;;;;;;14.57;4.50;;;;;;;14.62;89.61;101945.38;5072650;28;20008;-35
2022/05/26 05:51:15;;;;;;;14.10;4.60;;;;;;;14.66;89.40;101958.28;5073221;28;20400;-35
2022/05/26 05:53:42;;;;;;;12.30;4.45;;;;;;;14.69;89.41;101959.72;5073088;28;20024;-35
2022/05/26 05:56:08;;;;;;;13.82;4.50;;;;;;;14.81;89.12;101968.75;5072949;28;20040;-35
2022/05/26 05:58:34;;;;;;;;;;;;;;;14.93;88.29;101968.78;5073059;28;20043;-36
2022/05/26 06:00:59;;;;;;;11.73;3.88;;;;;;;14.98;87.39;101966.19;5073169;28;20052;-35
2022/05/26 06:03:31;;;;;;;18.40;4.63;;;;;;;15.13;87.74;101963.03;5072972;28;20063;-35
2022/05/26 06:06:02;;;;;;;15.90;4.00;;;;;;;15.11;87.64;101965.16;5073309;28;20334;-35
2022/05/26 06:08:28;;;;;;;14.93;5.25;;;;;;;15.27;87.20;101971.81;5073416;28;20358;-35
2022/05/26 06:10:53;;;;;;;;;;;;;;;15.45;86.87;101972.53;5073111;28;20085;-35
2022/05/26 06:13:19;;;;;;;11.52;4.10;;;;;;;15.43;86.12;101990.22;5072085;28;19935;-35
2022/05/26 06:15:47;;;;;;;15.65;4.90;;;;;;;15.36;85.45;101987.56;5071307;28;20040;-35
2022/05/26 06:18:16;;;;;;;15.40;4.68;;;;;;;15.31;85.95;101987.44;5072439;28;20032;-35
2022/05/26 06:20:41;;;;;;;16.27;4.40;;;;;;;15.24;86.09;101985.91;5072044;28;20107;-35
2022/05/26 06:23:06;;;;;;;;;;;;;;;15.38;86.03;101990.09;5072763;28;20056;-35
2022/05/26 06:25:32;;;;;;;17.02;4.57;;;;;;;15.31;86.27;101982.00;5072118;28;19908;-35
2022/05/26 06:30:41;;;;;;;15.93;4.82;;;;;;;15.37;86.05;101992.00;5072096;28;20546;-35
2022/05/26 06:38:39;;;;;;;14.32;4.47;;;;;;;15.52;84.77;102002.44;5072728;28;20048;-35
2022/05/26 06:43:52;;;;;;;;;;;;;;;15.67;84.72;102011.00;5072670;28;20117;-35
2022/05/26 06:46:18;;;;;;;14.65;5.07;;;;;;;15.58;84.71;102014.28;5072492;28;19994;-35
2022/05/26 06:48:44;;;;;;;12.98;4.35;;;;;;;15.65;84.93;102010.41;5071838;28;20028;-35
2022/05/26 06:51:09;;;;;;;;;;;;;;;15.82;84.37;102012.44;5072617;28;20032;-35
2022/05/26 06:53:35;;;;;;;13.90;5.13;;;;;;;15.84;83.39;102018.47;5075257;28;19909;-35
2022/05/26 06:56:00;;;;;;;;;;;;;;;15.98;83.62;102019.88;5076670;28;20346;-35
2022/05/26 06:58:27;;;;;;;13.88;4.28;;;;;;;16.04;82.04;102021.66;5075484;28;19908;-35
2022/05/26 07:00:53;;;;;;;11.60;4.32;;;;;;;16.03;80.98;102017.28;5075782;28;20035;-35
2022/05/26 07:03:18;;;;;;;10.55;4.30;;;;;;;16.09;80.70;102021.75;5075509;28;20381;-35
2022/05/26 07:05:44;;;;;;;;;;;;;;;16.33;80.73;102019.81;5074291;28;20043;-35
2022/05/26 07:08:09;;;;;;;13.73;4.97;;;;;;;16.43;79.77;102032.84;5075287;28;19912;-35
2022/05/26 07:10:34;;;;;;;;;;;;;;;16.57;80.31;102023.31;5075963;28;20094;-36
2022/05/26 07:13:00;;;;;;;8.97;3.37;;;;;;;16.43;77.65;102025.50;5074928;28;20015;-35
2022/05/26 07:15:26;;;;;;;10.10;3.83;;;;;;;16.49;78.07;102034.63;5075957;28;20411;-35
2022/05/26 07:17:51;;;;;;;12.10;4.32;;;;;;;16.48;76.96;102038.41;5074889;28;20112;-35
2022/05/26 07:20:17;;;;;;;8.80;3.75;;;;;;;16.56;76.65;102042.69;5075507;28;20039;-35
2022/05/26 07:22:42;;;;;;;;;;;;;;;16.67;78.12;102050.84;5075883;28;20380;-35
2022/05/26 07:25:08;;;;;;;12.18;3.53;;;;;;;16.62;77.00;102042.53;5084708;28;19944;-35
2022/05/26 07:27:34;;;;;;;10.00;3.50;;;;;;;16.67;76.58;102052.75;5075030;28;20134;-35
2022/05/26 07:30:00;;;;;;;8.10;2.92;;;;;;;16.62;75.54;102037.06;5075598;28;20052;-35
2022/05/26 07:32:25;;;;;;;;;;;;;;;16.78;75.91;102053.78;5075505;28;20062;-35
2022/05/26 07:34:51;;;;;;;11.37;3.30;;;;;;;16.54;74.93;102070.22;5074628;28;19908;-35
2022/05/26 07:42:44;;;;;;;13.57;3.15;;;;;;;16.82;75.79;102057.72;5075402;28;20039;-35
2022/05/26 07:45:10;;;;;;;8.55;2.72;;;;;;;16.85;73.97;102066.25;5074810;28;20452;-35
2022/05/26 07:47:37;;;;;;;9.90;3.22;;;;;;;16.81;73.00;102075.19;5075535;28;20044;-36
2022/05/26 07:50:05;;;;;;;13.63;3.47;;;;;;;16.85;73.57;102069.00;5074673;28;20024;-35
2022/05/26 07:52:30;;;;;;;16.17;4.10;;;;;;;16.87;73.40;102058.63;5074792;28;20407;-35
2022/05/26 07:54:55;;;;;;;;;;;;;;;17.02;74.33;102058.09;5075210;28;20036;-35
2022/05/26 07:57:26;;;;;;;7.63;3.00;;;;;;;16.93;73.31;102054.94;5074535;28;19916;-35
2022/05/26 07:59:53;;;;;;;10.35;2.97;;;;;;;17.04;72.63;102053.22;5074428;28;20032;-35
2022/05/26 08:02:19;;;;;;;52.40;4.00;;;;;;;17.20;73.79;102063.34;5074358;28;20484;-35
2022/05/26 08:04:46;;;;;;;7.70;2.42;;;;;;;17.28;71.65;102058.59;5073977;28;20487;-35
2022/05/26 08:07:11;;;;;;;8.18;2.78;;;;;;;17.33;70.61;102072.34;5074183;28;20345;-35
2022/05/26 08:09:38;;;;;;;;;;;;;;;17.51;71.57;102072.09;5074294;28;20028;-35
2022/05/26 08:12:05;;;;;;;6.15;2.30;;;;;;;17.61;70.18;102076.91;5074077;28;19913;-35
2022/05/26 08:14:31;;;;;;;10.80;3.55;;;;;;;17.67;70.36;102084.13;5072824;28;20017;-35
2022/05/26 08:16:56;;;;;;;;;;;;;;;17.73;71.15;102075.78;5074691;28;20036;-35
2022/05/26 08:19:21;;;;;;;13.43;4.03;;;;;;;17.56;69.99;102074.91;5074658;28;19935;-35
2022/05/26 08:21:48;;;;;;;;;;;;;;;17.66;71.54;102072.34;5074781;28;20326;-35
2022/05/26 08:24:13;;;;;;;8.85;2.65;;;;;;;17.41;71.06;102071.91;5074589;28;19957;-35
2022/05/26 08:26:38;;;;;;;;;;;;;;;17.58;71.67;102074.69;5074983;28;20119;-35
2022/05/26 08:29:03;;;;;;;6.43;2.23;;;;;;;17.58;68.42;102072.78;5074005;28;20459;-35
2022/05/26 08:31:29;;;;;;;;;;;;;;;17.81;69.54;102069.06;5074344;28;20162;-35
2022/05/26 08:33:54;;;;;;;10.65;2.90;;;;;;;17.82;68.91;102078.13;5074501;28;19908;-35
2022/05/26 08:36:21;;;;;;;;;;;;;;;17.98;69.21;102085.47;5074197;28;20480;-35
2022/05/26 08:38:47;;;;;;;14.45;4.43;;;;;;;17.76;68.64;102093.59;5074451;28;19912;-35
2022/05/26 08:41:35;;;;;;;35.33;4.93;;;;;;;17.75;69.21;102092.78;5073951;28;20038;-35
2022/05/26 08:44:06;;;;;;;45.00;6.53;;;;;;;17.99;70.67;102089.84;5073362;28;20020;-35
2022/05/26 08:46:37;;;;;;;10.48;2.33;;;;;;;18.12;67.25;102089.53;5073587;28;20016;-35
2022/05/26 08:49:08;;;;;;;6.60;2.63;;;;;;;18.20;66.65;102091.84;5073982;28;20138;-35
2022/05/26 08:52:01;;;;;;;6.53;2.10;;;;;;;18.27;66.90;102095.22;5073135;28;20024;-35
2022/05/26 08:54:31;;;;;;;5.72;2.30;;;;;;;18.01;66.39;102083.06;5073923;28;20096;-35
2022/05/26 08:57:00;;;;;;;9.70;2.63;;;;;;;18.24;66.40;102086.66;5074461;28;20025;-35
2022/05/26 08:59:33;;;;;;;8.32;2.55;;;;;;;18.45;65.79;102096.00;5073322;28;20060;-35
2022/05/26 09:02:01;;;;;;;6.57;2.17;;;;;;;18.64;65.27;102094.63;5073685;28;20465;-35
2022/05/26 09:04:27;;;;;;;5.70;1.90;;;;;;;18.65;62.09;102093.53;5073567;28;20032;-35
2022/05/26 09:15:15;;;;;;;6.50;2.42;;;;;;;18.75;64.50;102077.25;5072654;28;20090;-35
2022/05/26 09:17:40;;;;;;;;;;;;;;;19.11;64.55;102096.00;5074399;28;20036;-35
2022/05/26 09:20:42;;;;;;;5.38;2.08;;;;;;;19.26;63.24;102090.66;5073119;28;19912;-35
2022/05/26 09:23:31;;;;;;;5.97;2.10;;;;;;;19.16;60.48;102104.28;5073244;28;20056;-35
2022/05/26 09:26:02;;;;;;;6.88;2.00;;;;;;;19.02;61.09;102103.84;5073812;28;20458;-35
2022/05/26 09:28:50;;;;;;;5.18;2.17;;;;;;;19.11;61.33;102116.03;5073154;28;20388;-35
2022/05/26 09:31:33;;;;;;;6.82;2.63;;;;;;;19.22;61.32;102114.22;5073039;28;20039;-35
2022/05/26 09:34:01;;;;;;;9.07;2.67;;;;;;;19.09;62.09;102117.38;5073018;28;20024;-35
2022/05/26 09:36:30;;;;;;;6.63;2.10;;;;;;;18.96;60.97;102111.19;5073312;28;20029;-35
2022/05/26 09:38:57;;;;;;;4.43;2.08;;;;;;;18.91;61.54;102126.75;5072872;28;20039;-35
2022/05/26 09:41:23;;;;;;;6.57;2.17;;;;;;;18.60;62.41;102101.69;5073298;28;20032;-35
2022/05/26 09:43:50;;;;;;;;;;;;;;;18.90;63.07;102131.41;5073275;28;20385;-35
2022/05/26 09:46:17;;;;;;;6.10;1.80;;;;;;;18.52;61.62;102135.81;5072294;28;19970;-35
2022/05/26 09:48:49;;;;;;;4.70;1.70;;;;;;;18.60;62.32;102134.56;5072152;28;20488;-35
2022/05/26 09:51:30;;;;;;;5.68;1.95;;;;;;;18.67;62.79;102120.66;5069122;28;20051;-35
2022/05/26 09:53:56;;;;;;;7.53;2.03;;;;;;;18.63;62.00;102134.03;5052952;28;20052;-35
2022/05/26 09:56:31;;;;;;;;;;;;;;;18.69;61.32;102138.56;5053443;28;20425;-35
2022/05/26 09:58:57;;;;;;;6.07;1.85;;;;;;;18.51;61.94;102138.81;5056524;28;20011;-35
2022/05/26 10:01:26;;;;;;;;;;;;;;;18.77;63.09;102132.63;5073116;28;20076;-35
2022/05/26 10:04:34;;;;;;;4.50;1.73;;;;;;;19.26;61.92;102131.81;5072235;28;20260;-35
2022/05/26 10:07:02;;;;;;;;;;;;;;;19.44;60.63;102127.88;5072981;28;20542;-35
2022/05/26 10:09:44;;;;;;;6.00;1.48;;;;;;;19.69;59.09;102121.84;5072728;28;19919;-35
2022/05/26 10:12:28;;;;;;;5.25;1.67;;;;;;;19.57;58.34;102105.53;5072628;28;20036;-35
2022/05/26 10:14:56;;;;;;;3.33;1.20;;;;;;;19.30;57.37;102089.91;5072503;28;20112;-35
2022/05/26 10:17:33;;;;;;;5.00;1.70;;;;;;;19.44;58.02;102144.34;5072801;28;20418;-35
2022/05/26 10:20:29;;;;;;;6.10;1.55;;;;;;;19.76;58.44;102136.16;5072147;28;20025;-35
2022/05/26 10:23:22;;;;;;;5.38;1.35;;;;;;;19.77;57.84;102138.66;5072834;28;20035;-35
2022/05/26 10:26:16;;;;;;;3.65;1.45;;;;;;;19.67;56.67;102143.22;5069886;28;20036;-35
2022/05/26 10:29:08;;;;;;;4.55;1.60;;;;;;;19.52;57.16;102127.41;5075039;28;20376;-36
2022/05/26 10:31:58;;;;;;;4.75;1.42;;;;;;;19.56;57.19;102139.50;5076140;28;20059;-35
2022/05/26 10:34:38;;;;;;;4.20;1.45;;;;;;;19.43;56.09;102148.19;5076299;28;20078;-35
2022/05/26 10:37:26;;;;;;;5.10;1.42;;;;;;;19.57;55.40;102143.94;5076028;28;20032;-35
2022/05/26 10:40:24;;;;;;;3.55;1.20;;;;;;;19.75;55.08;102132.59;5075574;28;20094;-35
2022/05/26 10:42:57;;;;;;;6.80;1.70;;;;;;;20.11;54.47;102138.38;5076456;28;20028;-35
2022/05/26 10:45:36;;;;;;;3.75;1.42;;;;;;;20.03;54.85;102131.44;5075580;28;20035;-35
2022/05/26 10:48:26;;;;;;;5.47;1.42;;;;;;;20.00;55.50;102142.94;5075909;28;20024;-35
2022/05/26 10:51:15;;;;;;;6.93;1.83;;;;;;;20.35;53.97;102137.97;5075520;28;20473;-35
2022/05/26 10:53:44;;;;;;;3.42;1.05;;;;;;;20.39;51.98;102137.16;5076080;28;20032;-35
2022/05/26 10:56:28;;;;;;;4.28;1.75;;;;;;;20.53;53.05;102135.63;5076000;28;20063;-35
2022/05/26 10:59:19;;;;;;;3.97;1.17;;;;;;;20.71;52.96;102131.59;5076221;28;20029;-36
2022/05/26 11:01:53;;;;;;;5.00;1.40;;;;;;;20.53;52.26;102132.06;5053917;28;20037;-36
2022/05/26 11:04:27;;;;;;;4.22;1.58;;;;;;;20.54;52.64;102147.44;5053617;28;20155;-36
2022/05/26 11:06:59;;;;;;;3.60;1.20;;;;;;;20.33;53.35;102146.47;5053586;28;20041;-36
2022/05/26 11:09:42;;;;;;;4.63;1.55;;;;;;;20.15;53.55;102152.38;5053093;28;20079;-36
2022/05/26 11:12:16;;;;;;;4.28;1.60;;;;;;;20.04;54.33;102151.50;5053264;28;20076;-36
2022/05/26 11:17:44;;;;;;;6.68;2.00;;;;;;;19.96;55.48;102140.97;5053366;28;20044;-36
2022/05/26 11:20:18;;;;;;;4.93;1.73;;;;;;;19.80;55.56;102145.53;5052986;28;20041;-36
2022/05/26 11:22:45;;;;;;;3.22;1.63;;;;;;;19.80;55.11;102138.13;5052919;28;20037;-36
2022/05/26 11:25:15;;;;;;;4.05;1.70;;;;;;;19.98;54.27;102133.31;5052785;28;20041;-36
2022/05/26 11:27:55;;;;;;;4.90;1.42;;;;;;;20.29;54.75;102145.34;5052627;28;20033;-36
2022/05/26 11:36:21;;;;;;;6.65;2.17;;;;;;;20.08;52.56;102143.56;5052751;28;20290;-36
2022/05/26 11:38:49;;;;;;;3.38;1.80;;;;;;;19.87;52.88;102143.41;5063555;28;20106;-36
2022/05/26 11:41:25;;;;;;;8.13;2.53;;;;;;;20.14;54.69;102126.03;5074095;28;20036;-36
2022/05/26 11:44:10;;;;;;;5.35;2.05;;;;;;;20.24;54.66;102134.31;5075054;28;20536;-36
2022/05/26 11:46:41;;;;;;;3.65;1.50;;;;;;;20.35;53.20;102122.34;5075121;28;20495;-36
2022/05/26 11:49:07;;;;;;;3.95;1.52;;;;;;;20.24;52.49;102126.91;5073342;28;20443;-36
2022/05/26 11:51:38;;;;;;;;;;;;;;;20.36;53.77;102123.16;5075171;28;20111;-36
2022/05/26 11:54:04;;;;;;;8.20;2.60;;;;;;;20.00;54.76;102131.13;5074394;28;20361;-36
2022/05/26 11:56:32;;;;;;;;;;;;;;;20.17;55.14;102139.22;5075247;28;20035;-36
2022/05/26 11:59:28;;;;;;;7.53;3.30;;;;;;;19.93;56.02;102130.53;5074521;28;20011;-36
2022/05/26 12:01:53;;;;;;;6.85;3.60;;;;;;;19.91;56.33;102122.59;5074741;28;20028;-36
2022/05/26 12:04:32;;;;;;;;;;;;;;;20.22;56.62;102122.78;5075171;28;20361;-36
2022/05/26 12:07:06;;;;;;;6.80;3.97;;;;;;;20.52;56.37;102124.91;5074677;28;20280;-36
2022/05/26 12:09:48;;;;;;;7.82;5.05;;;;;;;20.66;55.35;102117.84;5074318;28;20034;-36
2022/05/26 12:12:16;;;;;;;6.90;4.70;;;;;;;20.92;54.76;102105.00;5074168;28;20081;-36
2022/05/26 12:15:03;;;;;;;8.25;4.80;;;;;;;21.19;54.87;102109.50;5073935;28;20170;-36
2022/05/26 12:17:51;;;;;;;8.02;5.25;;;;;;;21.30;54.20;102105.66;5074665;28;20039;-36
2022/05/26 12:20:16;;;;;;;6.60;4.20;;;;;;;21.23;52.65;102105.13;5074153;28;20028;-36
2022/05/26 12:22:50;;;;;;;8.25;4.18;;;;;;;21.06;52.14;102094.34;5074321;28;20021;-36
2022/05/26 12:25:21;;;;;;;7.22;4.00;;;;;;;21.08;51.00;102103.97;5074044;28;20496;-36
2022/05/26 12:27:55;;;;;;;6.97;4.13;;;;;;;20.96;52.11;102100.63;5073902;28;20028;-36
2022/05/26 12:30:41;;;;;;;6.55;4.30;;;;;;;20.81;53.39;102100.59;5073974;28;20069;-36